Time;durP1;ratioP1;P1;durP2;ratioP2;P2;SDS_P1;SDS_P2;PMS_P1;PMS_P2;Temp;Humidity;BMP_temperature;BMP_pressure;BME280_temperature;BME280_humidity;BME280_pressure;Samples;Min_cycle;Max_cycle;Signal;HPM_P1;HPM_P2
2021/12/10 00:02:07;;;;;;;57.25;34.42;;;3.50;99.90;;;;;;5049755;28;20793;-55
2021/12/10 00:04:36;;;;;;;58.15;35.97;;;3.60;99.90;;;;;;5050223;28;20416;-56
2021/12/10 00:07:26;;;;;;;63.30;39.03;;;3.50;99.90;;;;;;5049610;28;21014;-57
2021/12/10 00:09:55;;;;;;;65.22;37.63;;;3.50;99.90;;;;;;5028784;28;20390;-57
2021/12/10 00:12:37;;;;;;;61.50;37.00;;;3.50;99.90;;;;;;5027359;28;20645;-55
2021/12/10 00:15:06;;;;;;;64.20;37.35;;;3.50;99.90;;;;;;5028939;28;20521;-56
2021/12/10 00:17:32;;;;;;;66.25;39.53;;;3.40;99.90;;;;;;5028400;28;20378;-55
2021/12/10 00:19:59;;;;;;;65.97;38.03;;;3.40;99.90;;;;;;5027235;28;20487;-54
2021/12/10 00:22:56;;;;;;;65.78;38.30;;;3.40;99.90;;;;;;5027932;28;20732;-54
2021/12/10 00:25:35;;;;;;;59.40;36.85;;;3.40;99.90;;;;;;5025611;28;20417;-57
2021/12/10 00:28:24;;;;;;;63.10;37.50;;;3.40;99.90;;;;;;5029418;28;20437;-58
2021/12/10 00:31:00;;;;;;;67.30;38.97;;;3.40;99.90;;;;;;5029074;28;20489;-57
2021/12/10 00:33:28;;;;;;;64.82;38.42;;;3.40;99.90;;;;;;5027351;28;20394;-58
2021/12/10 00:35:55;;;;;;;66.00;39.33;;;3.40;99.90;;;;;;5027959;28;20383;-56
2021/12/10 00:38:21;;;;;;;66.68;39.72;;;3.40;99.90;;;;;;5041155;28;20381;-56
2021/12/10 00:40:49;;;;;;;66.43;38.13;;;3.30;99.90;;;;;;5049710;28;20753;-56
2021/12/10 00:43:15;;;;;;;61.70;38.00;;;3.30;99.90;;;;;;5051294;28;20476;-54
2021/12/10 00:45:41;;;;;;;67.93;39.15;;;3.30;99.90;;;;;;5051783;28;20529;-54
2021/12/10 00:48:07;;;;;;;65.35;39.28;;;3.30;99.90;;;;;;5051690;28;20419;-56
2021/12/10 00:50:42;;;;;;;62.67;38.35;;;3.30;99.90;;;;;;5051930;28;20382;-55
2021/12/10 00:53:08;;;;;;;65.57;37.50;;;3.30;99.90;;;;;;5051215;28;20447;-57
2021/12/10 00:55:33;;;;;;;60.57;36.73;;;3.30;99.90;;;;;;5051115;28;20489;-54
2021/12/10 00:58:00;;;;;;;60.97;36.17;;;3.30;99.90;;;;;;5051888;28;20386;-54
2021/12/10 01:00:39;;;;;;;65.78;37.92;;;3.30;99.90;;;;;;5051345;28;20424;-53
2021/12/10 01:03:08;;;;;;;69.47;37.13;;;3.30;99.90;;;;;;5052393;28;20657;-57
2021/12/10 01:05:34;;;;;;;59.45;35.28;;;3.30;99.90;;;;;;5053884;28;20415;-58
2021/12/10 01:08:00;;;;;;;56.05;35.38;;;3.30;99.90;;;;;;5053734;28;20392;-58
2021/12/10 01:10:37;;;;;;;65.27;37.67;;;3.40;99.90;;;;;;5054170;28;20390;-55
2021/12/10 01:13:05;;;;;;;59.15;37.80;;;3.40;99.90;;;;;;5055265;28;20409;-56
2021/12/10 01:28:49;;;;;;;55.42;33.78;;;3.30;99.90;;;;;;5054742;28;20936;-56
2021/12/10 01:31:14;;;;;;;59.03;36.55;;;3.40;99.90;;;;;;5052771;28;20401;-55
2021/12/10 01:33:43;;;;;;;58.80;35.00;;;3.30;99.90;;;;;;5052996;28;20389;-55
2021/12/10 01:36:10;;;;;;;60.55;35.90;;;3.40;99.90;;;;;;5054246;28;20392;-58
2021/12/10 01:38:39;;;;;;;58.72;34.47;;;3.40;99.90;;;;;;5054096;28;20556;-56
2021/12/10 01:41:10;;;;;;;58.90;35.63;;;3.40;99.90;;;;;;5052691;28;20424;-57
2021/12/10 01:43:40;;;;;;;56.72;35.33;;;3.40;99.90;;;;;;5055067;28;20393;-58
2021/12/10 01:46:18;;;;;;;61.20;36.10;;;3.40;99.90;;;;;;5054482;28;20393;-55
2021/12/10 01:48:47;;;;;;;59.07;35.93;;;3.50;99.90;;;;;;5053780;28;21198;-58
2021/12/10 01:51:16;;;;;;;53.88;35.25;;;3.40;99.90;;;;;;5068582;28;21010;-56
2021/12/10 01:53:45;;;;;;;55.60;34.45;;;3.40;99.90;;;;;;5052124;28;20396;-55
2021/12/10 01:56:15;;;;;;;58.38;35.33;;;3.40;99.90;;;;;;5068854;28;20389;-58
2021/12/10 01:58:41;;;;;;;60.07;37.17;;;3.40;99.90;;;;;;5053611;28;20568;-58
2021/12/10 02:01:17;;;;;;;62.38;36.80;;;3.40;99.90;;;;;;5053282;28;20396;-57
2021/12/10 02:03:45;;;;;;;63.00;37.72;;;3.40;99.90;;;;;;5054943;28;20526;-58
2021/12/10 02:06:10;;;;;;;59.75;35.92;;;3.30;99.90;;;;;;5055002;28;20477;-58
2021/12/10 02:08:38;;;;;;;64.32;37.22;;;3.40;99.90;;;;;;5042137;28;20479;-58
2021/12/10 02:11:04;;;;;;;57.05;34.90;;;3.30;99.90;;;;;;5050804;28;20666;-58
2021/12/10 02:13:31;;;;;;;61.08;35.75;;;3.40;99.90;;;;;;5033313;28;20389;-58
2021/12/10 02:15:56;;;;;;;61.00;35.07;;;3.30;99.90;;;;;;5049142;28;20425;-59
2021/12/10 02:18:22;;;;;;;59.83;35.97;;;3.30;99.90;;;;;;5033671;28;20708;-59
2021/12/10 02:21:00;;;;;;;56.80;34.60;;;3.30;99.90;;;;;;5032992;28;20802;-59
2021/12/10 02:23:26;;;;;;;57.87;35.10;;;3.40;99.90;;;;;;5033865;28;20564;-58
2021/12/10 02:25:51;;;;;;;56.93;34.90;;;3.40;99.90;;;;;;5033010;28;20395;-57
2021/12/10 02:28:18;;;;;;;58.80;35.67;;;3.30;99.90;;;;;;5032230;28;20395;-59
2021/12/10 02:30:44;;;;;;;55.75;33.47;;;3.30;99.90;;;;;;5033240;28;20413;-59
2021/12/10 02:33:10;;;;;;;56.25;34.75;;;3.40;99.90;;;;;;5032521;28;20395;-59
2021/12/10 02:35:36;;;;;;;56.78;34.67;;;3.40;99.90;;;;;;5033539;28;20402;-56
2021/12/10 02:38:05;;;;;;;56.22;34.08;;;3.40;99.90;;;;;;5042050;28;20381;-59
2021/12/10 02:40:31;;;;;;;59.25;35.80;;;3.40;99.90;;;;;;5050905;28;20381;-58
2021/12/10 02:43:00;;;;;;;64.33;36.50;;;3.40;99.90;;;;;;5051951;28;20434;-59
2021/12/10 02:45:29;;;;;;;59.15;35.45;;;3.40;99.90;;;;;;5052045;28;20437;-58
2021/12/10 02:47:55;;;;;;;58.40;35.03;;;3.40;99.90;;;;;;5052179;28;20390;-59
2021/12/10 02:50:25;;;;;;;54.00;34.75;;;3.40;99.90;;;;;;5051075;28;20401;-59
2021/12/10 02:52:51;;;;;;;55.10;34.22;;;3.40;99.90;;;;;;5067664;28;20388;-57
2021/12/10 02:55:20;;;;;;;56.72;35.25;;;3.30;99.90;;;;;;5050892;28;20397;-59
2021/12/10 02:57:49;;;;;;;58.83;35.08;;;3.30;99.90;;;;;;5051124;28;20399;-59
2021/12/10 03:00:18;;;;;;;54.33;34.83;;;3.30;99.90;;;;;;5053500;28;20503;-56
2021/12/10 03:02:43;;;;;;;55.10;33.90;;;3.30;99.90;;;;;;5053001;28;20618;-59
2021/12/10 03:05:10;;;;;;;56.42;34.83;;;3.30;99.90;;;;;;5052206;28;20770;-59
2021/12/10 03:07:38;;;;;;;58.33;34.15;;;3.30;99.90;;;;;;5049333;28;20806;-58
2021/12/10 03:10:07;;;;;;;54.85;34.10;;;3.20;99.90;;;;;;5034129;28;20727;-58
2021/12/10 03:12:33;;;;;;;55.67;33.72;;;3.20;99.90;;;;;;5031710;28;20449;-57
2021/12/10 03:14:59;;;;;;;53.67;33.67;;;3.30;99.90;;;;;;5034357;28;20394;-59
2021/12/10 03:20:47;;;;;;;53.72;32.55;;;3.30;99.90;;;;;;5038276;28;20408;-58
2021/12/10 03:23:21;;;;;;;53.30;31.60;;;3.30;99.90;;;;;;5043773;28;20385;-58
2021/12/10 03:25:47;;;;;;;50.75;31.55;;;3.40;99.90;;;;;;5051623;28;20402;-56
2021/12/10 03:28:13;;;;;;;48.07;30.27;;;3.40;99.90;;;;;;5053628;28;20677;-58
2021/12/10 03:30:47;;;;;;;47.07;29.87;;;3.50;99.90;;;;;;5052913;28;20505;-58
2021/12/10 03:33:13;;;;;;;57.35;32.92;;;3.50;99.90;;;;;;5052741;28;20463;-57
2021/12/10 03:35:43;;;;;;;50.35;30.60;;;3.50;99.90;;;;;;5053121;28;20849;-57
2021/12/10 03:38:12;;;;;;;52.72;32.00;;;3.40;99.90;;;;;;5070605;28;20385;-59
2021/12/10 03:40:38;;;;;;;54.37;32.93;;;3.40;99.90;;;;;;5053232;28;20443;-59
2021/12/10 03:43:08;;;;;;;52.92;31.58;;;3.50;99.90;;;;;;5053472;28;20462;-58
2021/12/10 03:45:39;;;;;;;49.83;30.20;;;3.50;99.90;;;;;;5051216;28;20413;-58
2021/12/10 03:48:10;;;;;;;45.50;29.00;;;3.50;99.90;;;;;;5052744;28;20624;-58
2021/12/10 03:50:36;;;;;;;47.47;30.15;;;3.50;99.90;;;;;;5049404;28;20813;-58
2021/12/10 03:53:02;;;;;;;45.33;28.77;;;3.50;99.90;;;;;;5049000;28;20385;-58
2021/12/10 03:55:28;;;;;;;44.83;29.20;;;3.50;99.90;;;;;;5050338;28;20481;-56
2021/12/10 03:57:56;;;;;;;48.47;28.90;;;3.50;99.90;;;;;;5052352;28;20396;-59
2021/12/10 04:00:28;;;;;;;50.35;29.88;;;3.60;99.90;;;;;;5051992;28;20397;-58
2021/12/10 04:02:54;;;;;;;43.33;27.98;;;3.50;99.90;;;;;;5050185;28;20479;-58
2021/12/10 04:05:20;;;;;;;41.20;26.67;;;3.60;99.90;;;;;;5051910;28;20413;-58
2021/12/10 04:07:45;;;;;;;45.83;29.83;;;3.60;99.90;;;;;;5049370;28;20665;-59
2021/12/10 04:10:13;;;;;;;47.15;28.58;;;3.60;99.90;;;;;;5048254;28;20471;-58
2021/12/10 04:12:39;;;;;;;44.33;27.77;;;3.60;99.90;;;;;;5049417;28;20404;-59
2021/12/10 04:15:06;;;;;;;47.13;28.67;;;3.60;99.90;;;;;;5050203;28;20405;-58
2021/12/10 04:17:34;;;;;;;44.17;27.23;;;3.60;99.90;;;;;;5050869;28;20393;-59
2021/12/10 04:20:00;;;;;;;46.25;28.80;;;3.60;99.90;;;;;;5052677;28;20389;-57
2021/12/10 04:22:32;;;;;;;43.78;26.17;;;3.60;99.90;;;;;;5057239;28;20400;-57
2021/12/10 04:25:04;;;;;;;41.15;26.90;;;3.60;99.90;;;;;;5071656;28;20715;-59
2021/12/10 04:27:30;;;;;;;42.47;26.67;;;3.60;99.90;;;;;;5055970;28;20378;-59
2021/12/10 04:29:58;;;;;;;44.57;27.67;;;3.60;99.90;;;;;;5056509;28;20911;-59
2021/12/10 04:32:26;;;;;;;39.03;25.60;;;3.60;99.90;;;;;;5057390;28;20393;-59
2021/12/10 04:34:53;;;;;;;43.10;26.77;;;3.60;99.90;;;;;;5056529;28;20393;-58
2021/12/10 04:37:19;;;;;;;40.85;27.73;;;3.70;99.90;;;;;;5055984;28;20508;-58
2021/12/10 04:39:47;;;;;;;39.28;25.88;;;3.60;99.90;;;;;;5055968;28;20464;-59
2021/12/10 04:42:17;;;;;;;43.35;27.42;;;3.60;99.90;;;;;;5055164;28;20420;-58
2021/12/10 04:44:43;;;;;;;40.63;26.42;;;3.60;99.90;;;;;;5055152;28;20513;-58
2021/12/10 04:47:09;;;;;;;44.37;26.37;;;3.70;99.90;;;;;;5056145;28;20661;-56
2021/12/10 04:49:35;;;;;;;41.35;26.65;;;3.60;99.90;;;;;;5056421;28;20369;-55
2021/12/10 04:52:02;;;;;;;43.00;27.55;;;3.60;99.90;;;;;;5056488;28;20381;-55
2021/12/10 04:54:28;;;;;;;42.40;27.15;;;3.60;99.90;;;;;;5057510;28;20666;-58
2021/12/10 04:56:57;;;;;;;43.00;27.38;;;3.60;99.90;;;;;;5055318;28;20381;-58
2021/12/10 04:59:24;;;;;;;41.33;26.55;;;3.60;99.90;;;;;;5055277;28;20389;-56
2021/12/10 05:01:53;;;;;;;39.30;24.92;;;3.60;99.90;;;;;;5055948;28;20389;-58
2021/12/10 05:04:18;;;;;;;40.85;27.38;;;3.60;99.90;;;;;;5054612;28;20416;-58
2021/12/10 05:06:44;;;;;;;44.00;27.52;;;3.60;99.90;;;;;;5054604;28;20393;-58
2021/12/10 05:09:12;;;;;;;40.10;25.87;;;3.60;99.90;;;;;;5054004;28;20439;-58
2021/12/10 05:11:39;;;;;;;41.67;27.65;;;3.60;99.90;;;;;;5053511;28;20377;-57
2021/12/10 05:14:05;;;;;;;41.35;25.13;;;3.60;99.90;;;;;;5054210;28;20821;-56
2021/12/10 05:16:32;;;;;;;38.92;25.30;;;3.60;99.90;;;;;;5053747;28;20487;-58
2021/12/10 05:19:00;;;;;;;41.90;26.80;;;3.60;99.90;;;;;;5053899;28;20490;-59
2021/12/10 05:21:30;;;;;;;43.10;27.63;;;3.60;99.90;;;;;;5040731;28;20799;-58
2021/12/10 05:23:56;;;;;;;40.35;25.88;;;3.60;99.90;;;;;;5032543;28;20807;-56
2021/12/10 05:26:22;;;;;;;39.53;25.87;;;3.60;99.90;;;;;;5033050;28;20383;-56
2021/12/10 05:28:48;;;;;;;42.73;26.37;;;3.60;99.90;;;;;;5033423;28;20400;-56
2021/12/10 05:31:14;;;;;;;42.47;25.85;;;3.60;99.90;;;;;;5032427;28;20394;-56
2021/12/10 05:33:40;;;;;;;43.13;25.67;;;3.60;99.90;;;;;;5034271;28;21094;-57
2021/12/10 05:36:06;;;;;;;44.53;26.70;;;3.60;99.90;;;;;;5034754;28;20402;-59
2021/12/10 05:38:32;;;;;;;43.00;27.20;;;3.60;99.90;;;;;;5032996;28;20383;-57
2021/12/10 05:40:59;;;;;;;45.70;27.38;;;3.50;99.90;;;;;;5032496;28;20588;-57
2021/12/10 05:43:25;;;;;;;44.27;27.53;;;3.50;99.90;;;;;;5034775;28;20489;-55
2021/12/10 05:45:53;;;;;;;42.17;26.77;;;3.60;99.90;;;;;;5032686;28;20909;-57
2021/12/10 05:48:20;;;;;;;43.78;27.67;;;3.60;99.90;;;;;;5031821;28;20490;-58
2021/12/10 05:50:46;;;;;;;39.75;26.50;;;3.50;99.90;;;;;;5037837;28;20389;-58
2021/12/10 05:53:12;;;;;;;41.75;25.85;;;3.60;99.90;;;;;;5050026;28;20385;-58
2021/12/10 05:55:40;;;;;;;38.30;25.20;;;3.60;99.90;;;;;;5049810;28;20389;-58
2021/12/10 05:58:06;;;;;;;42.03;27.08;;;3.60;99.90;;;;;;5049593;28;20382;-58
2021/12/10 06:00:37;;;;;;;44.10;28.55;;;3.60;99.90;;;;;;5047090;28;20456;-58
2021/12/10 06:03:03;;;;;;;42.30;26.83;;;3.50;99.90;;;;;;5047892;28;20644;-57
2021/12/10 06:05:31;;;;;;;43.85;26.95;;;3.50;99.90;;;;;;5046624;28;20401;-57
2021/12/10 06:07:57;;;;;;;42.60;26.65;;;3.50;99.90;;;;;;5045517;28;20472;-58
2021/12/10 06:10:23;;;;;;;39.83;25.88;;;3.50;99.90;;;;;;5044858;28;20737;-57
2021/12/10 06:12:50;;;;;;;44.67;28.45;;;3.50;99.90;;;;;;5045850;28;20973;-58
2021/12/10 06:15:18;;;;;;;41.92;26.65;;;3.50;99.90;;;;;;5046408;28;20401;-58
2021/12/10 06:17:45;;;;;;;44.87;27.13;;;3.40;99.90;;;;;;5043586;28;20494;-55
2021/12/10 06:20:17;;;;;;;43.53;27.95;;;3.40;99.90;;;;;;5042732;28;20442;-57
2021/12/10 06:22:43;;;;;;;44.85;27.27;;;3.40;99.90;;;;;;5024678;28;20645;-59
2021/12/10 06:25:09;;;;;;;44.53;26.98;;;3.30;99.90;;;;;;5026694;28;20411;-59
2021/12/10 06:27:36;;;;;;;45.03;27.67;;;3.30;99.90;;;;;;5028160;28;20405;-59
2021/12/10 06:30:03;;;;;;;40.95;26.13;;;3.30;99.90;;;;;;5030646;28;20399;-58
2021/12/10 06:32:29;;;;;;;40.45;25.13;;;3.40;99.90;;;;;;5031331;28;20426;-57
2021/12/10 06:34:55;;;;;;;44.13;27.17;;;3.40;99.90;;;;;;5029855;28;20379;-58
2021/12/10 06:37:21;;;;;;;42.40;26.23;;;3.40;99.90;;;;;;5030463;28;20395;-59
2021/12/10 06:39:47;;;;;;;43.83;27.17;;;3.40;99.90;;;;;;5031169;28;20543;-57
2021/12/10 06:42:13;;;;;;;45.90;28.00;;;3.30;99.90;;;;;;5031157;28;20699;-58
2021/12/10 06:44:39;;;;;;;43.72;27.30;;;3.30;99.90;;;;;;5031951;28;20433;-58
2021/12/10 06:47:06;;;;;;;43.15;26.42;;;3.30;99.90;;;;;;5030043;28;20399;-58
2021/12/10 06:49:33;;;;;;;48.50;29.90;;;3.30;99.90;;;;;;5029483;28;20578;-58
2021/12/10 06:52:01;;;;;;;43.88;27.88;;;3.30;99.90;;;;;;5046739;28;20435;-59
2021/12/10 06:54:30;;;;;;;40.85;26.17;;;3.10;99.90;;;;;;5048245;28;20816;-58
2021/12/10 06:56:56;;;;;;;41.10;26.83;;;3.10;99.90;;;;;;5048367;28;20404;-58
2021/12/10 06:59:25;;;;;;;48.90;28.88;;;3.10;99.90;;;;;;5046631;28;20488;-59
2021/12/10 07:01:52;;;;;;;43.28;27.10;;;3.10;99.90;;;;;;5047680;28;20389;-57
2021/12/10 07:04:19;;;;;;;38.77;24.80;;;3.00;99.90;;;;;;5046263;28;20816;-56
2021/12/10 07:06:45;;;;;;;42.65;26.70;;;3.10;99.90;;;;;;5045398;28;20385;-57
2021/12/10 07:09:16;;;;;;;41.35;26.50;;;3.10;99.90;;;;;;5041318;28;20837;-59
2021/12/10 07:11:43;;;;;;;37.85;24.38;;;3.20;99.90;;;;;;5041305;28;20385;-58
2021/12/10 07:14:08;;;;;;;43.28;25.98;;;3.20;99.90;;;;;;5041182;28;20377;-58
2021/12/10 07:16:34;;;;;;;40.27;26.60;;;3.20;99.90;;;;;;5039972;28;20560;-58
2021/12/10 07:19:02;;;;;;;46.78;26.73;;;3.30;99.90;;;;;;5040777;28;20781;-58
2021/12/10 07:21:29;;;;;;;46.58;28.30;;;3.30;99.90;;;;;;5039436;28;20381;-58
2021/12/10 07:23:55;;;;;;;44.05;27.33;;;3.30;99.90;;;;;;5039781;28;20512;-58
2021/12/10 07:26:21;;;;;;;39.88;26.75;;;3.20;99.90;;;;;;5040329;28;20457;-59
2021/12/10 07:28:47;;;;;;;42.78;26.63;;;3.20;99.90;;;;;;5042371;28;20496;-59
2021/12/10 07:31:14;;;;;;;45.33;28.60;;;3.20;99.90;;;;;;5041954;28;20389;-57
2021/12/10 07:33:41;;;;;;;45.58;27.75;;;3.30;99.90;;;;;;5044314;28;20400;-58
2021/12/10 07:36:07;;;;;;;43.70;25.98;;;3.30;99.90;;;;;;5042433;28;20408;-57
2021/12/10 07:38:34;;;;;;;41.63;26.63;;;3.30;99.90;;;;;;5042201;28;20790;-58
2021/12/10 07:41:00;;;;;;;44.77;27.30;;;3.30;99.90;;;;;;5040749;28;20587;-59
2021/12/10 07:43:26;;;;;;;44.53;27.58;;;3.30;99.90;;;;;;5042519;28;20447;-59
2021/12/10 07:45:52;;;;;;;42.35;26.40;;;3.30;99.90;;;;;;5040403;28;20425;-58
2021/12/10 07:48:20;;;;;;;44.50;27.55;;;3.30;99.90;;;;;;5039469;28;20955;-59
2021/12/10 07:50:58;;;;;;;46.05;27.55;;;3.30;99.90;;;;;;5038929;28;20730;-58
2021/12/10 07:53:26;;;;;;;42.95;26.77;;;3.30;99.90;;;;;;5038516;28;20733;-54
2021/12/10 07:55:52;;;;;;;46.97;29.13;;;3.30;99.90;;;;;;5039804;28;20486;-57
2021/12/10 07:58:18;;;;;;;48.90;28.27;;;3.30;99.90;;;;;;5038594;28;20680;-58
2021/12/10 08:00:46;;;;;;;46.08;28.38;;;3.30;99.90;;;;;;5036970;28;20451;-58
2021/12/10 08:03:13;;;;;;;40.90;25.50;;;3.30;99.90;;;;;;5037001;28;20391;-57
2021/12/10 08:05:39;;;;;;;38.08;25.05;;;3.30;99.90;;;;;;5038958;28;20429;-58
2021/12/10 08:08:06;;;;;;;39.97;25.73;;;3.30;99.90;;;;;;5037879;28;20534;-56
2021/12/10 08:10:33;;;;;;;41.47;26.30;;;3.30;99.90;;;;;;5037847;28;20983;-56
2021/12/10 08:12:59;;;;;;;40.15;26.33;;;3.40;99.90;;;;;;5033595;28;20672;-57
2021/12/10 08:15:25;;;;;;;40.30;25.85;;;3.40;99.90;;;;;;5037683;28;20397;-57
2021/12/10 08:17:51;;;;;;;39.97;26.03;;;3.40;99.90;;;;;;5037895;28;20401;-56
2021/12/10 08:20:20;;;;;;;42.70;25.80;;;3.40;99.90;;;;;;5035698;28;20448;-54
2021/12/10 08:22:47;;;;;;;42.70;27.63;;;3.40;99.90;;;;;;5017249;28;20568;-56
2021/12/10 08:25:13;;;;;;;40.27;26.80;;;3.40;99.90;;;;;;5018555;28;20427;-57
2021/12/10 08:27:40;;;;;;;42.53;26.48;;;3.40;99.90;;;;;;5021811;28;20379;-58
2021/12/10 08:30:09;;;;;;;41.17;26.15;;;3.40;99.90;;;;;;5019597;28;20399;-55
2021/12/10 08:32:36;;;;;;;42.85;27.45;;;3.40;99.90;;;;;;5019795;28;20456;-58
2021/12/10 08:35:05;;;;;;;44.75;27.35;;;3.40;99.90;;;;;;5021770;28;20426;-57
2021/12/10 08:37:30;;;;;;;43.60;26.95;;;3.40;99.90;;;;;;5024300;28;20445;-56
2021/12/10 08:39:56;;;;;;;42.58;27.00;;;3.40;99.90;;;;;;5021991;28;20575;-54
2021/12/10 08:42:22;;;;;;;42.58;26.13;;;3.40;99.90;;;;;;5020100;28;20703;-55
2021/12/10 08:44:47;;;;;;;39.08;25.33;;;3.40;99.90;;;;;;5021065;28;20414;-58
2021/12/10 08:47:14;;;;;;;42.08;26.13;;;3.40;99.90;;;;;;5017984;28;20569;-58
2021/12/10 08:49:41;;;;;;;45.58;26.48;;;3.40;99.90;;;;;;5015828;28;20387;-55
2021/12/10 08:52:08;;;;;;;43.88;26.52;;;3.40;99.90;;;;;;5033946;28;20385;-57
2021/12/10 08:54:36;;;;;;;42.55;26.13;;;3.40;99.90;;;;;;5037176;28;20878;-55
2021/12/10 08:57:01;;;;;;;38.78;25.52;;;3.40;99.90;;;;;;5036962;28;20389;-55
2021/12/10 08:59:28;;;;;;;44.00;26.17;;;3.40;99.90;;;;;;5038272;28;20632;-58
2021/12/10 09:01:59;;;;;;;41.95;25.63;;;3.50;99.90;;;;;;5040286;28;20397;-56
2021/12/10 09:04:26;;;;;;;43.28;26.27;;;3.40;99.90;;;;;;5040439;28;20939;-58
2021/12/10 09:06:56;;;;;;;41.15;25.30;;;3.50;99.90;;;;;;5041713;28;20387;-57
2021/12/10 09:09:23;;;;;;;41.03;24.88;;;3.50;99.90;;;;;;5042210;28;20475;-58
2021/12/10 09:11:52;;;;;;;39.20;23.95;;;3.50;99.90;;;;;;5042402;28;20375;-56
2021/12/10 09:14:19;;;;;;;37.45;24.35;;;3.50;99.90;;;;;;5042596;28;20480;-55
2021/12/10 09:16:45;;;;;;;34.67;22.70;;;3.60;99.90;;;;;;5045466;28;20393;-58
2021/12/10 09:19:14;;;;;;;40.50;24.47;;;3.60;99.90;;;;;;5045046;28;20692;-57
2021/12/10 09:21:41;;;;;;;41.63;24.97;;;3.60;99.90;;;;;;5044157;28;20381;-57
2021/12/10 09:24:08;;;;;;;36.63;23.58;;;3.60;99.90;;;;;;5045765;28;20409;-56
2021/12/10 09:26:39;;;;;;;33.92;22.25;;;3.60;99.90;;;;;;5044277;28;20386;-59
2021/12/10 09:29:08;;;;;;;38.17;23.60;;;3.70;99.90;;;;;;5045584;28;20389;-58
2021/12/10 09:31:38;;;;;;;34.15;21.55;;;3.70;99.90;;;;;;5046156;28;20385;-58
2021/12/10 09:34:05;;;;;;;35.97;22.98;;;3.70;99.90;;;;;;5044955;28;20478;-58
2021/12/10 09:36:32;;;;;;;34.53;21.77;;;3.80;99.90;;;;;;5046794;28;20396;-57
2021/12/10 09:38:59;;;;;;;36.65;23.40;;;3.80;99.90;;;;;;5050181;28;20387;-58
2021/12/10 09:41:26;;;;;;;38.35;22.98;;;3.80;99.90;;;;;;5050797;28;20690;-55
2021/12/10 09:43:53;;;;;;;36.22;22.40;;;3.80;99.90;;;;;;5051441;28;20889;-57
2021/12/10 09:46:20;;;;;;;35.88;22.00;;;3.80;99.90;;;;;;5050680;28;20781;-62
2021/12/10 09:48:48;;;;;;;37.13;22.83;;;3.80;99.90;;;;;;5050129;28;20385;-62
2021/12/10 09:51:25;;;;;;;38.30;23.48;;;3.80;99.90;;;;;;5049561;28;20484;-62
2021/12/10 09:53:55;;;;;;;34.83;22.13;;;3.80;99.90;;;;;;5048007;28;20389;-57
2021/12/10 09:56:23;;;;;;;34.15;21.45;;;3.80;99.90;;;;;;5032068;28;20378;-55
2021/12/10 09:58:53;;;;;;;34.47;22.10;;;3.90;99.90;;;;;;5049478;28;20439;-58
2021/12/10 10:01:45;;;;;;;32.00;20.47;;;3.90;99.90;;;;;;5051654;28;20453;-58
2021/12/10 10:04:17;;;;;;;37.40;21.92;;;3.90;99.90;;;;;;5053539;28;20429;-58
2021/12/10 10:06:54;;;;;;;36.55;21.70;;;3.90;99.90;;;;;;5036893;28;20936;-56
2021/12/10 10:09:21;;;;;;;34.25;21.15;;;3.90;99.90;;;;;;5050390;28;20381;-58
2021/12/10 10:11:54;;;;;;;34.83;21.08;;;3.90;99.90;;;;;;5050179;28;20436;-57
2021/12/10 10:14:20;;;;;;;31.08;20.10;;;3.90;99.90;;;;;;5050877;28;20466;-58
2021/12/10 10:16:46;;;;;;;33.27;21.03;;;4.00;99.90;;;;;;5049952;28;20397;-56
2021/12/10 10:19:13;;;;;;;33.00;21.13;;;4.00;99.90;;;;;;5046360;28;20657;-53
2021/12/10 10:21:44;;;;;;;29.85;19.08;;;4.00;99.90;;;;;;5044462;28;20412;-56
2021/12/10 10:24:11;;;;;;;28.52;18.42;;;4.00;99.90;;;;;;5045644;28;20402;-56
2021/12/10 10:26:42;;;;;;;31.23;20.33;;;4.00;99.90;;;;;;5044874;28;20450;-53
2021/12/10 10:29:15;;;;;;;34.60;20.60;;;4.00;99.90;;;;;;5045336;28;20835;-58
2021/12/10 10:31:51;;;;;;;32.97;19.73;;;4.00;99.90;;;;;;5042917;28;20628;-58
2021/12/10 10:34:18;;;;;;;30.83;19.73;;;4.00;99.90;;;;;;5042126;28;21017;-57
2021/12/10 10:36:44;;;;;;;31.92;19.40;;;4.10;99.90;;;;;;5041292;28;20481;-58
2021/12/10 10:39:17;;;;;;;28.38;18.77;;;4.20;99.90;;;;;;5039680;28;20691;-56
2021/12/10 10:41:46;;;;;;;29.50;19.20;;;4.20;99.90;;;;;;5039762;28;20419;-56
2021/12/10 10:44:12;;;;;;;29.73;19.13;;;4.20;99.90;;;;;;5038288;28;20720;-57
2021/12/10 10:46:38;;;;;;;35.15;21.50;;;4.20;99.90;;;;;;5039801;28;20612;-56
2021/12/10 10:49:06;;;;;;;34.88;21.88;;;4.30;99.90;;;;;;5041742;28;20854;-58
2021/12/10 10:51:36;;;;;;;33.53;20.50;;;4.20;99.90;;;;;;5039581;28;20435;-56
2021/12/10 10:54:07;;;;;;;31.42;20.42;;;4.20;99.90;;;;;;5040494;28;20403;-58
2021/12/10 10:56:39;;;;;;;28.85;18.50;;;4.30;99.90;;;;;;5040646;28;20401;-55
2021/12/10 10:59:24;;;;;;;36.00;22.00;;;4.30;99.90;;;;;;5040993;28;20421;-58
2021/12/10 11:01:59;;;;;;;32.65;20.38;;;4.30;99.90;;;;;;5023840;28;20392;-58
2021/12/10 11:04:29;;;;;;;32.10;21.25;;;4.40;99.90;;;;;;5053793;28;20405;-56
2021/12/10 11:07:04;;;;;;;33.42;21.17;;;4.30;99.90;;;;;;5038306;28;20381;-58
2021/12/10 11:09:32;;;;;;;33.87;21.90;;;4.30;99.90;;;;;;5037928;28;20634;-56
2021/12/10 11:12:03;;;;;;;33.58;21.38;;;4.30;99.90;;;;;;5038249;28;20405;-56
2021/12/10 11:14:37;;;;;;;34.45;21.55;;;4.30;99.90;;;;;;5040162;28;20389;-56
2021/12/10 11:17:11;;;;;;;31.08;20.42;;;4.30;99.90;;;;;;5041636;28;20685;-58
2021/12/10 11:19:36;;;;;;;33.47;21.42;;;4.30;99.90;;;;;;5041636;28;20503;-57
2021/12/10 11:22:11;;;;;;;32.47;20.55;;;4.30;99.90;;;;;;5008120;28;20710;-54
2021/12/10 11:24:55;;;;;;;28.98;18.80;;;4.30;99.90;;;;;;5023096;28;20403;-58
2021/12/10 11:27:30;;;;;;;37.70;23.10;;;4.40;99.90;;;;;;5024914;28;20498;-56
2021/12/10 11:30:08;;;;;;;30.38;20.35;;;4.40;99.90;;;;;;5031363;28;20405;-57
2021/12/10 11:32:44;;;;;;;30.42;18.83;;;4.40;99.90;;;;;;5029911;28;20683;-56
2021/12/10 11:35:47;;;;;;;30.45;19.77;;;4.40;99.90;;;;;;5027345;28;20419;-56
2021/12/10 11:38:32;;;;;;;28.73;18.33;;;4.40;99.90;;;;;;5018737;28;20391;-58
2021/12/10 11:41:16;;;;;;;26.70;17.63;;;4.50;99.90;;;;;;5025779;28;20493;-54
2021/12/10 11:47:25;;;;;;;33.67;19.90;;;4.60;99.90;;;;;;5014239;28;20425;-53
2021/12/10 11:49:49;;;;;;;25.93;17.80;;;4.50;99.90;;;;;;5027623;28;20398;-55
2021/12/10 11:52:25;;;;;;;28.67;18.80;;;4.60;99.90;;;;;;5047618;28;20477;-53
2021/12/10 11:54:55;;;;;;;31.02;20.55;;;4.60;99.90;;;;;;5049666;28;20388;-55
2021/12/10 11:57:33;;;;;;;30.85;19.77;;;4.60;99.90;;;;;;5046299;28;20393;-57
2021/12/10 12:00:06;;;;;;;31.50;19.80;;;4.60;99.90;;;;;;5044413;28;20391;-57
2021/12/10 12:02:45;;;;;;;34.25;20.88;;;4.60;99.90;;;;;;5042643;28;20502;-58
2021/12/10 12:05:16;;;;;;;28.55;18.98;;;4.50;99.90;;;;;;5042843;28;20412;-57
2021/12/10 12:07:50;;;;;;;31.60;19.38;;;4.60;99.90;;;;;;5041874;28;20377;-58
2021/12/10 12:10:36;;;;;;;26.75;17.65;;;4.60;99.90;;;;;;5043913;28;20405;-57
2021/12/10 12:15:46;;;;;;;30.85;20.02;;;4.70;99.90;;;;;;5042575;28;20401;-59
2021/12/10 12:18:29;;;;;;;28.77;18.35;;;4.70;99.90;;;;;;5041450;28;20389;-57
2021/12/10 12:27:18;;;;;;;27.77;17.55;;;4.80;99.90;;;;;;5043047;28;20428;-59
2021/12/10 12:29:55;;;;;;;27.40;18.63;;;4.70;99.90;;;;;;5041258;28;20389;-59
2021/12/10 12:32:31;;;;;;;31.33;19.88;;;4.70;99.90;;;;;;5041688;28;20389;-57
2021/12/10 12:35:13;;;;;;;31.07;20.47;;;4.70;99.90;;;;;;5042318;28;20497;-57
2021/12/10 12:37:40;;;;;;;32.22;20.02;;;4.70;99.90;;;;;;5042096;28;20396;-57
2021/12/10 12:40:07;;;;;;;29.80;19.40;;;4.70;99.90;;;;;;5040356;28;20405;-56
2021/12/10 12:42:44;;;;;;;28.20;18.73;;;4.70;99.90;;;;;;5045681;28;20502;-58
2021/12/10 12:45:20;;;;;;;31.00;19.77;;;4.70;99.90;;;;;;5046439;28;20420;-58
2021/12/10 12:47:53;;;;;;;30.27;20.48;;;4.70;99.90;;;;;;5048142;28;20504;-56
2021/12/10 12:50:24;;;;;;;31.42;19.85;;;4.70;99.90;;;;;;5044177;28;20381;-56
2021/12/10 12:53:09;;;;;;;28.77;17.65;;;4.70;99.90;;;;;;5040584;28;20381;-58
2021/12/10 12:55:47;;;;;;;31.52;19.27;;;4.70;99.90;;;;;;5041412;28;20397;-58
2021/12/10 12:59:03;;;;;;;27.60;17.63;;;4.70;99.90;;;;;;5045775;28;20580;-58
2021/12/10 13:01:42;;;;;;;24.67;16.20;;;4.70;99.90;;;;;;5045731;28;20488;-56
2021/12/10 13:04:27;;;;;;;26.23;16.70;;;4.80;99.90;;;;;;5046369;28;20862;-58
2021/12/10 13:07:01;;;;;;;27.73;17.27;;;4.80;99.90;;;;;;5045342;28;20377;-58
2021/12/10 13:09:41;;;;;;;24.15;15.45;;;4.80;99.90;;;;;;5045039;28;21033;-56
2021/12/10 13:12:21;;;;;;;21.63;15.30;;;4.90;99.90;;;;;;5047258;28;20408;-57
2021/12/10 13:15:00;;;;;;;25.10;16.48;;;4.90;99.90;;;;;;5045074;28;20407;-56
2021/12/10 13:17:46;;;;;;;22.85;15.60;;;4.90;99.90;;;;;;5039730;28;20390;-55